createdAt,value
2018-04-11T00:00:06.865Z,9.43
2018-04-11T00:02:34.534Z,9.17
2018-04-11T00:05:02.238Z,12.07
2018-04-11T00:07:29.901Z,11.97
2018-04-11T00:09:57.594Z,12.13
2018-04-11T00:12:25.262Z,10.87
2018-04-11T00:14:52.986Z,11.70
2018-04-11T00:17:20.789Z,9.17
2018-04-11T00:19:48.457Z,11.63
2018-04-11T00:22:16.923Z,14.30
2018-04-11T00:24:44.575Z,11.47
2018-04-11T00:27:12.270Z,14.60
2018-04-11T00:29:39.935Z,10.53
2018-04-11T00:32:07.630Z,10.17
2018-04-11T00:34:36.042Z,13.10
2018-04-11T00:37:03.720Z,8.70
2018-04-11T00:39:31.387Z,9.67
2018-04-11T00:41:59.074Z,8.93
2018-04-11T00:44:26.722Z,9.97
2018-04-11T00:46:54.399Z,9.20
2018-04-11T00:49:22.845Z,11.40
2018-04-11T00:51:51.545Z,10.73
2018-04-11T00:54:19.218Z,8.43
2018-04-11T00:56:46.911Z,7.87
2018-04-11T00:59:14.555Z,8.07
2018-04-11T01:01:43.005Z,9.77
2018-04-11T01:04:10.668Z,10.43
2018-04-11T01:06:38.359Z,13.40
2018-04-11T01:09:06.796Z,9.97
2018-04-11T01:11:34.484Z,7.60
2018-04-11T01:14:02.146Z,8.57
2018-04-11T01:16:29.837Z,9.90
2018-04-11T01:18:57.497Z,12.30
2018-04-11T01:21:25.218Z,11.27
2018-04-11T01:23:52.895Z,11.23
2018-04-11T01:26:21.565Z,8.00
2018-04-11T01:28:49.217Z,8.63
2018-04-11T01:31:16.887Z,9.90
2018-04-11T01:33:44.535Z,9.77
2018-04-11T01:36:12.192Z,8.40
2018-04-11T01:38:39.863Z,11.73
2018-04-11T01:41:07.504Z,9.10
2018-04-11T01:43:35.190Z,9.00
2018-04-11T01:46:02.858Z,8.87
2018-04-11T01:48:30.544Z,10.10
2018-04-11T01:50:58.967Z,7.57
2018-04-11T01:53:26.645Z,8.00
2018-04-11T01:55:54.314Z,14.30
2018-04-11T01:58:22.008Z,8.50
2018-04-11T02:00:51.678Z,11.03
2018-04-11T02:03:19.366Z,7.27
2018-04-11T02:05:47.032Z,9.40
2018-04-11T02:08:15.491Z,7.33
2018-04-11T02:10:43.153Z,15.43
2018-04-11T02:13:10.832Z,8.30
2018-04-11T02:15:38.518Z,8.47
2018-04-11T02:18:06.226Z,8.80
2018-04-11T02:20:33.881Z,11.87
2018-04-11T02:23:01.568Z,11.10
2018-04-11T02:25:29.232Z,7.77
2018-04-11T02:27:56.913Z,8.40
2018-04-11T02:30:25.352Z,8.90
2018-04-11T02:32:53.030Z,8.53
2018-04-11T02:35:21.591Z,9.23
2018-04-11T02:37:49.272Z,9.20
2018-04-11T02:40:16.919Z,13.13
2018-04-11T02:42:44.608Z,9.67
2018-04-11T02:45:13.024Z,11.33
2018-04-11T02:47:40.725Z,10.73
2018-04-11T02:50:08.385Z,10.00
2018-04-11T02:52:36.073Z,10.20
2018-04-11T02:55:04.502Z,8.17
2018-04-11T02:57:32.193Z,9.70
2018-04-11T02:59:59.897Z,9.50
2018-04-11T03:02:27.577Z,10.03
2018-04-11T03:04:55.811Z,12.70
2018-04-11T03:07:24.235Z,11.60
2018-04-11T03:09:53.234Z,8.60
2018-04-11T03:12:20.899Z,10.53
2018-04-11T03:14:48.600Z,12.40
2018-04-11T03:17:16.251Z,9.90
2018-04-11T03:19:43.933Z,9.17
2018-04-11T03:22:12.358Z,10.60
2018-04-11T03:24:40.050Z,12.37
2018-04-11T03:27:07.722Z,10.23
2018-04-11T03:29:35.409Z,11.33
2018-04-11T03:32:03.847Z,12.40
2018-04-11T03:34:31.560Z,11.07
2018-04-11T03:36:59.230Z,14.40
2018-04-11T03:39:26.934Z,11.23
2018-04-11T03:41:54.591Z,11.30
2018-04-11T03:44:22.283Z,12.60
2018-04-11T03:46:50.554Z,14.13
2018-04-11T03:49:18.254Z,16.20
2018-04-11T03:51:45.919Z,14.57
2018-04-11T03:54:13.615Z,17.87
2018-04-11T03:56:41.286Z,15.87
2018-04-11T03:59:08.964Z,17.53
2018-04-11T04:01:36.680Z,18.77
2018-04-11T04:04:04.355Z,19.03
2018-04-11T04:06:32.022Z,18.83
2018-04-11T04:08:59.710Z,20.53
2018-04-11T04:11:27.371Z,24.33
2018-04-11T04:14:06.867Z,21.33
2018-04-11T04:16:46.406Z,25.00
2018-04-11T04:19:36.622Z,29.33
2018-04-11T04:22:04.289Z,27.97
2018-04-11T04:24:33.602Z,20.43
2018-04-11T04:27:01.279Z,25.37
2018-04-11T04:29:29.724Z,24.80
2018-04-11T04:31:57.384Z,20.67
2018-04-11T04:34:25.075Z,25.13
2018-04-11T04:36:53.501Z,23.47
2018-04-11T04:39:22.409Z,27.53
2018-04-11T04:41:51.318Z,23.53
2018-04-11T04:44:18.980Z,26.57
2018-04-11T04:46:46.652Z,26.80
2018-04-11T04:49:14.317Z,24.23
2018-04-11T04:51:42.822Z,23.70
2018-04-11T04:54:10.474Z,24.70
2018-04-11T04:56:38.924Z,33.83
2018-04-11T04:59:06.592Z,30.13
2018-04-11T05:01:34.302Z,26.77
2018-04-11T05:04:01.956Z,30.33
2018-04-11T05:06:29.644Z,28.93
2018-04-11T05:08:57.301Z,31.57
2018-04-11T05:11:24.975Z,31.40
2018-04-11T05:13:52.639Z,34.83
2018-04-11T05:16:20.319Z,30.57
2018-04-11T05:18:47.994Z,31.20
2018-04-11T05:21:16.446Z,34.00
2018-04-11T05:23:44.875Z,31.30
2018-04-11T05:26:12.592Z,30.00
2018-04-11T05:28:40.242Z,32.43
2018-04-11T05:31:07.949Z,33.40
2018-04-11T05:33:36.382Z,32.17
2018-04-11T05:36:04.059Z,35.10
2018-04-11T05:38:31.724Z,35.40
2018-04-11T05:40:59.423Z,31.87
2018-04-11T05:43:27.083Z,33.17
2018-04-11T05:45:54.765Z,33.90
2018-04-11T05:48:22.433Z,33.57
2018-04-11T05:50:51.160Z,31.20
2018-04-11T05:53:18.811Z,33.80
2018-04-11T05:55:46.503Z,32.97
2018-04-11T05:58:14.929Z,36.83
2018-04-11T06:00:42.624Z,35.50
2018-04-11T06:03:10.297Z,40.30
2018-04-11T06:05:38.749Z,37.67
2018-04-11T06:08:06.414Z,35.57
2018-04-11T06:10:34.093Z,31.33
2018-04-11T06:13:01.767Z,34.17
2018-04-11T06:15:30.256Z,34.73
2018-04-11T06:17:58.689Z,35.30
2018-04-11T06:20:26.355Z,31.50
2018-04-11T06:22:54.050Z,34.23
2018-04-11T06:25:22.481Z,34.60
2018-04-11T06:27:51.115Z,34.00
2018-04-11T06:30:20.234Z,33.43
2018-04-11T06:32:47.922Z,30.23
2018-04-11T06:35:15.584Z,32.17
2018-04-11T06:37:43.264Z,35.73
2018-04-11T06:40:10.912Z,33.27
2018-04-11T06:42:38.618Z,27.80
2018-04-11T06:45:07.055Z,31.80
2018-04-11T06:47:34.746Z,39.30
2018-04-11T06:50:02.414Z,33.80
2018-04-11T06:52:30.861Z,40.00
2018-04-11T06:54:58.521Z,31.37
2018-04-11T06:57:26.207Z,41.07
2018-04-11T06:59:53.878Z,30.73
2018-04-11T07:02:22.348Z,31.50
2018-04-11T07:04:50.625Z,30.67
2018-04-11T07:07:18.314Z,29.30
2018-04-11T07:09:45.977Z,34.13
2018-04-11T07:12:13.648Z,31.17
2018-04-11T07:14:41.314Z,33.30
2018-04-11T07:17:09.008Z,30.90
2018-04-11T07:19:36.656Z,37.00
2018-04-11T07:22:04.348Z,28.90
2018-04-11T07:24:32.015Z,33.73
2018-04-11T07:26:59.713Z,30.90
2018-04-11T07:29:27.378Z,31.83
2018-04-11T07:31:55.069Z,32.67
2018-04-11T07:34:22.742Z,30.07
2018-04-11T07:36:51.212Z,34.17
2018-04-11T07:39:18.882Z,29.20
2018-04-11T07:41:46.569Z,28.13
2018-04-11T07:44:14.234Z,31.50
2018-04-11T07:46:41.905Z,30.10
2018-04-11T07:49:10.361Z,29.47
2018-04-11T07:51:38.030Z,30.20
2018-04-11T07:54:05.716Z,28.00
2018-04-11T07:56:34.137Z,30.33
2018-04-11T07:59:01.808Z,26.37
2018-04-11T08:01:29.474Z,27.90
2018-04-11T08:03:57.170Z,27.83
2018-04-11T08:06:25.619Z,28.87
2018-04-11T08:08:53.326Z,28.30
2018-04-11T08:11:20.995Z,29.60
2018-04-11T08:13:48.686Z,28.27
2018-04-11T08:16:16.374Z,26.43
2018-04-11T08:18:44.082Z,26.50
2018-04-11T08:21:11.758Z,26.70
2018-04-11T08:23:38.958Z,26.90
2018-04-11T08:26:06.648Z,25.67
2018-04-11T08:28:35.111Z,28.60
2018-04-11T08:31:03.547Z,29.00
2018-04-11T08:33:31.246Z,27.23
2018-04-11T08:35:58.909Z,26.80
2018-04-11T08:38:27.370Z,25.90
2018-04-11T08:40:55.042Z,27.83
2018-04-11T08:43:22.745Z,26.97
2018-04-11T08:45:51.274Z,26.13
2018-04-11T08:48:18.966Z,26.30
2018-04-11T08:50:47.398Z,25.47
2018-04-11T08:53:15.079Z,25.30
2018-04-11T08:55:42.749Z,27.30
2018-04-11T08:58:10.437Z,25.03
2018-04-11T09:00:38.870Z,25.67
2018-04-11T09:03:06.561Z,25.90
2018-04-11T09:05:34.226Z,25.07
2018-04-11T09:08:01.997Z,25.93
2018-04-11T09:10:30.426Z,26.63
2018-04-11T09:12:58.087Z,22.97
2018-04-11T09:15:25.769Z,25.17
2018-04-11T09:17:53.451Z,24.17
2018-04-11T09:20:22.917Z,22.80
2018-04-11T09:22:51.719Z,22.80
2018-04-11T09:25:19.411Z,23.60
2018-04-11T09:27:47.827Z,24.23
2018-04-11T09:30:15.515Z,23.60
2018-04-11T09:32:43.175Z,25.60
2018-04-11T09:35:10.880Z,23.80
2018-04-11T09:37:39.310Z,22.33
2018-04-11T09:40:06.995Z,23.57
2018-04-11T09:42:34.662Z,21.20
2018-04-11T09:45:02.361Z,22.13
2018-04-11T09:47:30.015Z,21.70
2018-04-11T09:49:57.707Z,23.20
2018-04-11T09:52:25.360Z,22.47
2018-04-11T09:54:53.814Z,21.83
2018-04-11T09:57:22.240Z,25.70
2018-04-11T09:59:50.312Z,22.63
2018-04-11T10:02:23.983Z,22.33
2018-04-11T10:04:52.761Z,22.50
2018-04-11T10:07:21.187Z,21.50
2018-04-11T10:09:48.870Z,22.00
2018-04-11T10:12:16.529Z,26.27
2018-04-11T10:14:44.222Z,20.00
2018-04-11T10:17:12.659Z,18.10
2018-04-11T10:19:40.368Z,21.93
2018-04-11T10:22:08.024Z,18.50
2018-04-11T10:24:36.459Z,19.80
2018-04-11T10:27:04.117Z,17.30
2018-04-11T10:29:31.809Z,16.93
2018-04-11T10:31:59.488Z,19.47
2018-04-11T10:34:27.945Z,19.43
2018-04-11T10:36:55.621Z,18.37
2018-04-11T10:39:24.079Z,17.73
2018-04-11T10:41:52.954Z,16.43
2018-04-11T10:44:21.349Z,16.67
2018-04-11T10:46:49.010Z,16.93
2018-04-11T10:49:16.661Z,17.30
2018-04-11T10:51:44.361Z,15.40
2018-04-11T10:54:12.796Z,14.87
2018-04-11T10:56:40.491Z,14.93
2018-04-11T10:59:08.915Z,13.27
2018-04-11T11:01:36.618Z,13.33
2018-04-11T11:04:04.301Z,12.07
2018-04-11T11:06:32.745Z,12.90
2018-04-11T11:09:00.400Z,12.57
2018-04-11T11:11:28.096Z,12.47
2018-04-11T11:13:56.542Z,12.30
2018-04-11T11:16:24.268Z,12.37
2018-04-11T11:18:52.448Z,12.60
2018-04-11T11:21:21.047Z,12.50
2018-04-11T11:23:48.726Z,13.23
2018-04-11T11:26:16.422Z,12.20
2018-04-11T11:28:44.843Z,11.87
2018-04-11T11:31:12.545Z,11.57
2018-04-11T11:33:40.222Z,11.37
2018-04-11T11:36:08.681Z,9.77
2018-04-11T11:38:36.346Z,11.10
2018-04-11T11:41:04.039Z,12.97
2018-04-11T11:43:31.721Z,12.20
2018-04-11T11:45:59.463Z,12.03
2018-04-11T11:48:27.871Z,12.60
2018-04-11T11:50:55.559Z,13.00
2018-04-11T11:53:23.229Z,11.20
2018-04-11T11:55:51.942Z,11.63
2018-04-11T11:58:21.429Z,11.47
2018-04-11T12:00:49.106Z,13.70
2018-04-11T12:03:17.552Z,15.90
2018-04-11T12:05:45.213Z,16.33
2018-04-11T12:08:12.891Z,18.47
2018-04-11T12:10:40.558Z,17.70
2018-04-11T12:13:08.251Z,19.50
2018-04-11T12:15:35.917Z,18.67
2018-04-11T12:18:03.609Z,18.30
2018-04-11T12:20:31.275Z,20.17
2018-04-11T12:22:58.966Z,19.17
2018-04-11T12:25:26.634Z,20.83
2018-04-11T12:27:54.316Z,21.50
2018-04-11T12:30:23.311Z,19.67
2018-04-11T12:32:51.005Z,20.23
2018-04-11T12:35:18.669Z,20.53
2018-04-11T12:37:46.359Z,20.97
2018-04-11T12:40:14.034Z,21.37
2018-04-11T12:42:42.496Z,23.70
2018-04-11T12:45:10.162Z,20.53
2018-04-11T12:47:37.840Z,25.10
2018-04-11T12:50:05.507Z,25.37
2018-04-11T12:52:33.968Z,24.73
2018-04-11T12:55:01.652Z,24.40
2018-04-11T12:57:30.119Z,23.70
2018-04-11T12:59:57.793Z,24.20
2018-04-11T13:02:26.256Z,23.90
2018-04-11T13:04:53.932Z,22.53
2018-04-11T13:07:22.395Z,24.13
2018-04-11T13:09:50.059Z,21.77
2018-04-11T13:12:17.744Z,24.60
2018-04-11T13:14:45.405Z,26.57
2018-04-11T13:17:13.837Z,22.53
2018-04-11T13:19:42.297Z,21.50
2018-04-11T13:22:09.979Z,24.77
2018-04-11T13:24:37.672Z,26.37
2018-04-11T13:27:05.337Z,29.53
2018-04-11T13:29:33.793Z,28.70
2018-04-11T13:32:01.477Z,28.67
2018-04-11T13:34:29.929Z,29.03
2018-04-11T13:36:58.200Z,28.23
2018-04-11T13:39:25.898Z,28.40
2018-04-11T13:41:54.312Z,32.83
2018-04-11T13:44:23.236Z,30.13
2018-04-11T13:46:52.403Z,31.80
2018-04-11T13:49:20.091Z,30.30
2018-04-11T13:51:47.744Z,33.97
2018-04-11T13:54:15.415Z,34.93
2018-04-11T13:56:43.088Z,34.70
2018-04-11T13:59:10.777Z,29.47
2018-04-11T14:01:39.219Z,31.13
2018-04-11T14:04:06.896Z,29.80
2018-04-11T14:06:34.568Z,29.30
2018-04-11T14:09:02.261Z,31.53
2018-04-11T14:11:29.939Z,32.27
2018-04-11T14:13:57.607Z,32.27
2018-04-11T14:16:25.290Z,34.07
2018-04-11T14:18:52.995Z,30.73
2018-04-11T14:21:22.608Z,31.97
2018-04-11T14:23:51.256Z,32.40
2018-04-11T14:26:18.941Z,32.13
2018-04-11T14:28:47.409Z,32.37
2018-04-11T14:31:15.078Z,31.13
2018-04-11T14:33:43.559Z,30.83
2018-04-11T14:36:12.005Z,33.13
2018-04-11T14:38:39.671Z,33.80
2018-04-11T14:41:07.357Z,32.63
2018-04-11T14:43:35.046Z,34.07
2018-04-11T14:46:02.742Z,37.40
2018-04-11T14:48:30.402Z,36.70
2018-04-11T14:50:58.090Z,32.57
2018-04-11T14:53:25.751Z,32.87
2018-04-11T14:55:53.434Z,31.23
2018-04-11T14:58:23.095Z,34.27
2018-04-11T15:00:51.687Z,34.10
2018-04-11T15:03:19.351Z,32.37
2018-04-11T15:05:47.048Z,31.80
2018-04-11T15:08:15.478Z,35.57
2018-04-11T15:10:43.176Z,32.53
2018-04-11T15:13:10.856Z,32.33
2018-04-11T15:15:39.325Z,32.70
2018-04-11T15:18:06.993Z,36.97
2018-04-11T15:20:35.444Z,34.03
2018-04-11T15:23:03.101Z,32.73
2018-04-11T15:25:30.794Z,35.90
2018-04-11T15:27:59.222Z,35.63
2018-04-11T15:30:26.909Z,30.60
2018-04-11T15:32:54.570Z,34.53
2018-04-11T15:35:22.254Z,34.40
2018-04-11T15:37:50.500Z,33.47
2018-04-11T15:40:18.174Z,33.03
2018-04-11T15:42:45.838Z,31.10
2018-04-11T15:45:13.515Z,34.17
2018-04-11T15:47:41.950Z,37.33
2018-04-11T15:50:09.657Z,35.60
2018-04-11T15:52:37.328Z,31.40
2018-04-11T15:55:05.757Z,34.50
2018-04-11T15:57:33.446Z,34.40
2018-04-11T16:00:01.111Z,33.57
2018-04-11T16:02:28.798Z,35.07
2018-04-11T16:04:57.230Z,33.77
2018-04-11T16:07:24.925Z,36.50
2018-04-11T16:09:52.590Z,33.87
2018-04-11T16:12:21.031Z,37.37
2018-04-11T16:14:48.695Z,35.20
2018-04-11T16:17:16.384Z,35.17
2018-04-11T16:19:44.050Z,43.37
2018-04-11T16:22:11.730Z,37.13
2018-04-11T16:24:39.398Z,37.03
2018-04-11T16:27:07.106Z,44.13
2018-04-11T16:29:34.751Z,42.73
2018-04-11T16:32:02.448Z,47.30
2018-04-11T16:34:30.118Z,38.17
2018-04-11T16:36:58.371Z,41.73
2018-04-11T16:39:26.041Z,42.00
2018-04-11T16:41:53.740Z,39.20
2018-04-11T16:44:22.632Z,41.07
2018-04-11T16:46:51.498Z,36.40
2018-04-11T16:49:20.559Z,38.50
2018-04-11T16:51:48.282Z,35.10
2018-04-11T16:54:15.945Z,40.80
2018-04-11T16:56:43.667Z,33.93
2018-04-11T16:59:11.330Z,32.07
2018-04-11T17:01:39.041Z,32.97
2018-04-11T17:04:06.714Z,35.43
2018-04-11T17:06:34.438Z,32.03
2018-04-11T17:09:02.879Z,33.23
2018-04-11T17:11:30.548Z,30.60
2018-04-11T17:13:58.237Z,31.70
2018-04-11T17:16:26.657Z,31.47
2018-04-11T17:18:54.344Z,31.20
2018-04-11T17:21:34.007Z,33.30
2018-04-11T17:24:14.389Z,31.17
2018-04-11T17:26:53.907Z,36.30
2018-04-11T17:29:33.311Z,32.73
2018-04-11T17:32:00.989Z,32.17
2018-04-11T17:34:28.676Z,37.53
2018-04-11T17:36:57.128Z,33.60
2018-04-11T17:39:24.816Z,36.13
2018-04-11T17:41:52.467Z,34.93
2018-04-11T17:44:20.199Z,33.57
2018-04-11T17:46:47.889Z,34.07
2018-04-11T17:49:15.610Z,36.83
2018-04-11T17:51:43.277Z,40.87
2018-04-11T17:54:10.970Z,32.10
2018-04-11T17:56:38.635Z,38.63
2018-04-11T17:59:06.348Z,35.27
2018-04-11T18:01:34.786Z,36.33
2018-04-11T18:04:02.480Z,35.03
2018-04-11T18:06:30.145Z,37.40
2018-04-11T18:08:57.834Z,36.03
2018-04-11T18:11:25.495Z,32.07
2018-04-11T18:13:53.209Z,33.20
2018-04-11T18:16:22.705Z,35.13
2018-04-11T18:18:51.168Z,41.90
2018-04-11T18:21:18.839Z,36.17
2018-04-11T18:23:46.523Z,38.17
2018-04-11T18:26:14.965Z,38.27
2018-04-11T18:28:42.639Z,34.30
2018-04-11T18:31:10.304Z,39.00
2018-04-11T18:33:37.986Z,42.57
2018-04-11T18:36:05.672Z,36.20
2018-04-11T18:38:33.354Z,35.23
2018-04-11T18:41:01.038Z,37.90
2018-04-11T18:43:28.701Z,38.53
2018-04-11T18:45:56.402Z,38.17
2018-04-11T18:48:24.071Z,42.03
2018-04-11T18:50:52.914Z,37.50
2018-04-11T18:53:21.383Z,40.17
2018-04-11T18:55:49.072Z,39.17
2018-04-11T18:58:17.509Z,42.70
2018-04-11T19:00:45.213Z,38.50
2018-04-11T19:03:13.015Z,40.97
2018-04-11T19:05:40.713Z,39.53
2018-04-11T19:08:08.382Z,39.27
2018-04-11T19:10:36.070Z,36.20
2018-04-11T19:13:03.774Z,41.53
2018-04-11T19:15:31.480Z,38.03
2018-04-11T19:17:59.163Z,36.67
2018-04-11T19:20:27.629Z,39.27
2018-04-11T19:22:56.071Z,39.07
2018-04-11T19:25:23.773Z,38.17
2018-04-11T19:27:52.207Z,45.97
2018-04-11T19:30:20.698Z,39.70
2018-04-11T19:32:48.365Z,43.00
2018-04-11T19:35:16.080Z,42.00
2018-04-11T19:37:43.766Z,39.43
2018-04-11T19:40:11.432Z,38.70
2018-04-11T19:42:39.153Z,41.67
2018-04-11T19:45:07.582Z,42.87
2018-04-11T19:47:35.264Z,47.27
2018-04-11T19:50:02.977Z,36.37
2018-04-11T19:52:30.670Z,43.40
2018-04-11T19:54:58.339Z,40.90
2018-04-11T19:57:26.088Z,42.47
2018-04-11T19:59:53.752Z,44.80
2018-04-11T20:02:22.742Z,43.73
2018-04-11T20:04:51.501Z,43.00
2018-04-11T20:07:20.735Z,45.10
2018-04-11T20:09:48.405Z,43.27
2018-04-11T20:12:16.098Z,43.40
2018-04-11T20:14:44.530Z,44.47
2018-04-11T20:17:12.281Z,42.20
2018-04-11T20:19:39.970Z,43.40
2018-04-11T20:22:07.745Z,43.37
2018-04-11T20:24:35.509Z,43.90
2018-04-11T20:27:03.206Z,41.50
2018-04-11T20:29:30.973Z,43.20
2018-04-11T20:31:58.723Z,42.70
2018-04-11T20:34:27.182Z,43.87
2018-04-11T20:36:54.941Z,47.20
2018-04-11T20:39:22.675Z,47.67
2018-04-11T20:41:51.706Z,43.90
2018-04-11T20:44:19.414Z,52.37
2018-04-11T20:46:47.905Z,48.40
2018-04-11T20:49:15.603Z,44.13
2018-04-11T20:51:43.297Z,44.77
2018-04-11T20:54:11.067Z,50.70
2018-04-11T20:56:38.753Z,48.63
2018-04-11T20:59:06.499Z,52.00
2018-04-11T21:01:34.182Z,48.37
2018-04-11T21:04:01.878Z,50.53
2018-04-11T21:06:29.594Z,54.13
2018-04-11T21:08:57.294Z,50.43
2018-04-11T21:11:24.985Z,55.40
2018-04-11T21:13:53.447Z,57.80
2018-04-11T21:16:21.140Z,53.13
2018-04-11T21:18:49.604Z,58.70
2018-04-11T21:21:18.053Z,46.77
2018-04-11T21:23:45.759Z,46.03
2018-04-11T21:26:14.196Z,55.80
2018-04-11T21:28:41.892Z,57.97
2018-04-11T21:31:10.356Z,52.40
2018-04-11T21:33:38.054Z,54.10
2018-04-11T21:36:05.719Z,53.27
2018-04-11T21:38:33.383Z,50.33
2018-04-11T21:41:01.065Z,50.50
2018-04-11T21:43:28.747Z,51.53
2018-04-11T21:45:56.442Z,57.17
2018-04-11T21:48:24.866Z,47.03
2018-04-11T21:50:52.551Z,49.83
2018-04-11T21:53:20.227Z,50.17
2018-04-11T21:55:47.921Z,47.77
2018-04-11T21:58:15.593Z,52.83
2018-04-11T22:00:43.292Z,48.60
2018-04-11T22:03:10.976Z,54.10
2018-04-11T22:05:38.651Z,48.90
2018-04-11T22:08:06.316Z,51.20
2018-04-11T22:10:34.791Z,46.97
2018-04-11T22:13:03.233Z,52.33
2018-04-11T22:15:30.957Z,50.40
2018-04-11T22:17:58.607Z,49.10
2018-04-11T22:20:27.081Z,48.70
2018-04-11T22:22:55.559Z,42.97
2018-04-11T22:25:24.054Z,50.97
2018-04-11T22:27:52.494Z,46.50
2018-04-11T22:30:20.658Z,49.00
2018-04-11T22:32:48.332Z,46.53
2018-04-11T22:35:16.025Z,51.00
2018-04-11T22:37:44.464Z,50.27
2018-04-11T22:40:12.158Z,52.83
2018-04-11T22:42:40.576Z,49.77
2018-04-11T22:45:08.270Z,50.37
2018-04-11T22:47:35.962Z,52.43
2018-04-11T22:50:04.454Z,50.60
2018-04-11T22:52:32.881Z,50.60
2018-04-11T22:55:00.598Z,46.70
2018-04-11T22:57:28.282Z,46.23
2018-04-11T22:59:55.975Z,47.80
2018-04-11T23:02:23.674Z,52.20
2018-04-11T23:04:52.793Z,49.33
2018-04-11T23:07:21.572Z,43.37
2018-04-11T23:09:49.246Z,47.40
2018-04-11T23:12:16.962Z,45.33
2018-04-11T23:14:44.642Z,47.30
2018-04-11T23:17:13.100Z,48.87
2018-04-11T23:19:40.832Z,47.43
2018-04-11T23:22:08.522Z,43.23
2018-04-11T23:24:36.201Z,47.03
2018-04-11T23:27:03.943Z,51.03
2018-04-11T23:29:31.620Z,46.93
2018-04-11T23:31:59.314Z,47.40
2018-04-11T23:34:27.001Z,48.37
2018-04-11T23:36:54.700Z,44.20
2018-04-11T23:39:22.402Z,50.70
2018-04-11T23:41:50.619Z,45.90
2018-04-11T23:44:18.330Z,48.63
2018-04-11T23:46:46.778Z,48.30
2018-04-11T23:49:14.460Z,45.23
2018-04-11T23:51:42.913Z,45.97
2018-04-11T23:54:10.673Z,51.57
2018-04-11T23:56:39.107Z,47.77
2018-04-11T23:59:06.829Z,44.07
